Suederoog — ZDHC8 — position and weather

sailwx.info

Track history (hours):
 
Tides and Currents Weather Stations Pressure Air Temp Water Temp Dewpoint Dewpoint Depression Visibility Wind Speed Wind Dir Waves Ship Positions

Suederoog

Last reported at 2015-Mar-30 08:32 UTC. Time now 2015-Mar-30 09:23 UTC.
Position N 60°25' E 026°55'.

Length 161 m; draft 9.3 m.

Type: Cargo ship. MMSI: 236300000.

Date/timePositionNaut miles runAvg speedWind from/ knotsBaromVisibWave heightAir tempDewpointWater temp
2015-Mar-30 08:32N 60°25' E 026°55'0 0.0
2015-Mar-30 07:32N 60°25' E 026°55'0 0.0
2015-Mar-30 06:32N 60°25' E 026°55'0 0.0
2015-Mar-30 05:32N 60°25' E 026°55'0 0.0
2015-Mar-30 04:32N 60°25' E 026°55'0 0.0
2015-Mar-30 03:32N 60°25' E 026°55'0 0.0
2015-Mar-30 02:32N 60°25' E 026°55'0 0.0
2015-Mar-30 01:33N 60°25' E 026°55'0 0.0
2015-Mar-30 00:28N 60°25' E 026°55'0 0.0
2015-Mar-29 23:31N 60°25' E 026°55'0 0.0
2015-Mar-29 22:31N 60°25' E 026°55'0 0.0
2015-Mar-29 21:31N 60°25' E 026°55'0 0.0
2015-Mar-29 20:31N 60°25' E 026°55'0 0.0
2015-Mar-29 19:31N 60°25' E 026°55'0 0.0
2015-Mar-29 18:32N 60°25' E 026°55'0 0.0
2015-Mar-29 17:32N 60°25' E 026°55'0 0.0
2015-Mar-29 16:32N 60°25' E 026°55'0 0.0
2015-Mar-29 15:32N 60°25' E 026°55'0 0.0
2015-Mar-29 14:32N 60°25' E 026°55'0 0.0
2015-Mar-29 13:32N 60°25' E 026°55'0 0.0
2015-Mar-29 12:32N 60°25' E 026°55'0 0.0
2015-Mar-29 11:32N 60°25' E 026°55'0 0.0
2015-Mar-29 10:32N 60°25' E 026°55'0 0.0
2015-Mar-29 09:32N 60°25' E 026°55'0 0.0
2015-Mar-29 08:32N 60°25' E 026°55'0 0.0
2015-Mar-29 07:32N 60°25' E 026°55'0 0.0
2015-Mar-29 06:32N 60°25' E 026°55'0 0.0
2015-Mar-29 05:32N 60°25' E 026°55'0 0.0
2015-Mar-29 04:32N 60°25' E 026°55'0 0.0
2015-Mar-29 03:32N 60°25' E 026°55'0 0.0
2015-Mar-29 02:32N 60°25' E 026°55'0 0.0
2015-Mar-29 01:32N 60°25' E 026°55'0 0.0
2015-Mar-29 00:32N 60°25' E 026°55'0 0.0
2015-Mar-28 23:32N 60°25' E 026°55'0 0.0
2015-Mar-28 22:32N 60°25' E 026°55'0 0.0
2015-Mar-28 21:32N 60°25' E 026°55'0 0.0
2015-Mar-28 20:32N 60°25' E 026°55'0 0.0
2015-Mar-28 19:32N 60°25' E 026°55'0 0.0
2015-Mar-28 18:32N 60°25' E 026°55'0 0.0
2015-Mar-28 17:32N 60°25' E 026°55'0 0.0
2015-Mar-28 16:32N 60°25' E 026°55'0 0.0
2015-Mar-28 15:29N 60°25' E 026°55'0 0.0
2015-Mar-28 14:33N 60°25' E 026°55'0 0.0
2015-Mar-28 13:31N 60°25' E 026°55'0 0.1
2015-Mar-28 12:34N 60°25' E 026°55'3 3.0
2015-Mar-28 11:34N 60°22' E 026°54'5 4.9
2015-Mar-28 10:33N 60°23' E 026°44'6 6.2
2015-Mar-28 09:33N 60°19' E 026°35'9 9.0
2015-Mar-28 08:33N 60°12' E 026°23'1010.5
2015-Mar-28 07:33N 60°04' E 026°37'10810.5
2015-Mar-27 21:17N 59°53' E 030°12'1 0.3
2015-Mar-27 19:06N 59°52' E 030°12'0 0.0
2015-Mar-27 18:24N 59°52' E 030°12'0 0.0
2015-Mar-27 17:30N 59°52' E 030°12'0 0.0
2015-Mar-27 16:13N 59°52' E 030°12'1 1.0
2015-Mar-27 15:32N 59°53' E 030°12'0 0.0
2015-Mar-27 14:32N 59°53' E 030°12'0 0.0
2015-Mar-27 13:32N 59°53' E 030°12'0 0.0
2015-Mar-27 12:32N 59°53' E 030°12'0 0.0
2015-Mar-27 11:33N 59°53' E 030°12'0 0.0
2015-Mar-27 10:30N 59°53' E 030°12'0 0.0
2015-Mar-27 09:30N 59°53' E 030°12'0 0.0
2015-Mar-27 08:31N 59°53' E 030°12'0 0.0
2015-Mar-27 07:32N 59°53' E 030°12'0 0.0
2015-Mar-27 06:15N 59°53' E 030°12'0 0.0
2015-Mar-27 05:33N 59°53' E 030°12'0 0.0
2015-Mar-27 04:33N 59°53' E 030°12'0 0.0
2015-Mar-27 03:33N 59°53' E 030°12'0 0.1
2015-Mar-27 02:33N 59°53' E 030°12'8710.8
2015-Mar-26 18:29N 60°03' E 027°19'1010.9
2015-Mar-26 17:31N 59°58' E 027°00'1111.0
2015-Mar-26 16:34N 59°59' E 026°39'1110.7
2015-Mar-26 15:33N 59°57' E 026°19'5011.1
2015-Mar-26 11:04N 59°45' E 024°42'815.6
2015-Mar-26 10:32N 59°43' E 024°27'1615.5
2015-Mar-26 09:31N 59°39' E 023°56'1715.7
2015-Mar-26 08:26N 59°33' E 023°24'36411.8
2015-Mar-25 01:31N 55°31' E 015°00'1111.5
2015-Mar-25 00:33N 55°25' E 014°43'1411.5
2015-Mar-24 23:21N 55°15' E 014°27'911.5
2015-Mar-24 22:33N 55°08' E 014°17'1111.2
2015-Mar-24 21:33N 55°00' E 014°02'1111.5
2015-Mar-24 20:33N 54°57' E 013°43'1111.3
2015-Mar-24 19:33N 54°53' E 013°25'2311.3
2015-Mar-24 17:33N 54°47' E 012°47'1111.4
2015-Mar-24 16:32N 54°41' E 012°30'1110.9
2015-Mar-24 15:31N 54°34' E 012°16'1010.8
2015-Mar-24 14:33N 54°24' E 012°07'1211.9
2015-Mar-24 13:33N 54°25' E 011°46'1111.3
2015-Mar-24 12:33N 54°29' E 011°29'1211.6
2015-Mar-24 11:33N 54°35' E 011°11'2311.3
2015-Mar-24 09:33N 54°33' E 010°32'1010.4
2015-Mar-24 08:33N 54°28' E 010°16'8 7.6
2015-Mar-24 07:34N 54°22' E 010°08'4 3.8
2015-Mar-24 06:33N 54°22' E 010°02'5 5.3
2015-Mar-24 05:33N 54°21' E 009°53'6 5.7
2015-Mar-24 04:33N 54°20' E 009°43'5 5.1
2015-Mar-24 03:31N 54°16' E 009°37'5 4.4
2015-Mar-24 02:28N 54°12' E 009°33'6 5.5
2015-Mar-24 01:27N 54°10' E 009°24'6 6.4
2015-Mar-24 00:33N 54°05' E 009°19'7 6.9
2015-Mar-23 23:33N 53°58' E 009°16'6 6.1
2015-Mar-23 22:33N 53°54' E 009°09'1 0.9
2015-Mar-23 21:34N 53°53' E 009°08'2 2.2
2015-Mar-23 20:33N 53°53' E 009°12'1 1.5
2015-Mar-23 19:33N 53°53' E 009°14'1514.8
2015-Mar-23 18:33N 53°41' E 009°30'1312.7
2015-Mar-23 17:33N 53°33' E 009°47'5 4.7
2015-Mar-23 16:32N 53°32' E 009°55'0 0.0
2015-Mar-23 15:32N 53°32' E 009°55'0 0.0
2015-Mar-23 14:32N 53°32' E 009°55'0 0.0
2015-Mar-23 13:32N 53°32' E 009°55'0 0.0
2015-Mar-23 12:33N 53°32' E 009°55'0 0.0
2015-Mar-23 11:32N 53°32' E 009°55'0 0.0
2015-Mar-23 10:30N 53°32' E 009°55'0 0.0
2015-Mar-23 09:31N 53°32' E 009°55'0 0.0
2015-Mar-23 08:31N 53°32' E 009°55'0 0.0
2015-Mar-23 07:33N 53°32' E 009°55'0 0.0
2015-Mar-23 06:31N 53°32' E 009°55'0 0.5
2015-Mar-23 05:34N 53°32' E 009°54'2 1.6
2015-Mar-23 04:33N 53°32' E 009°57'0 0.0
2015-Mar-23 03:33N 53°32' E 009°57'0 0.0
2015-Mar-23 02:31N 53°32' E 009°57'0 0.0
2015-Mar-23 01:31N 53°32' E 009°57'0 0.0
2015-Mar-23 00:28N 53°32' E 009°57'0 0.0
2015-Mar-22 23:28N 53°32' E 009°57'0 0.0
2015-Mar-22 22:33N 53°32' E 009°57'0 0.0
2015-Mar-22 21:29N 53°32' E 009°57'0 0.0
2015-Mar-22 20:25N 53°32' E 009°57'0 0.0
2015-Mar-22 19:31N 53°32' E 009°57'0 0.0
2015-Mar-22 18:31N 53°32' E 009°57'0 0.0
2015-Mar-22 17:31N 53°32' E 009°57'0 0.0
2015-Mar-22 16:31N 53°32' E 009°57'1 0.6
2015-Mar-22 15:33N 53°32' E 009°56'1110.9
2015-Mar-22 14:33N 53°34' E 009°38'1515.2
2015-Mar-22 13:34N 53°47' E 009°23'1111.0
2015-Mar-22 12:33N 53°54' E 009°09'1 1.4
2015-Mar-22 11:33N 53°55' E 009°10'3 2.6
2015-Mar-22 10:33N 53°57' E 009°13'8 8.2
2015-Mar-22 09:33N 54°04' E 009°19'6 5.7
2015-Mar-22 08:30N 54°09' E 009°23'7 7.5
2015-Mar-22 07:33N 54°12' E 009°34'7 7.4
2015-Mar-22 06:33N 54°18' E 009°42'5 5.2
2015-Mar-22 05:33N 54°22' E 009°49'7 7.0
2015-Mar-22 04:33N 54°21' E 010°00'2 2.3
2015-Mar-22 03:33N 54°22' E 010°04'3 2.6
2015-Mar-22 02:33N 54°22' E 010°09'2 1.9
2015-Mar-22 01:33N 54°23' E 010°11'8 7.7
2015-Mar-22 00:34N 54°30' E 010°18'9 7.1
2015-Mar-21 23:19N 54°35' E 010°31'0 0.0
2015-Mar-21 22:19N 54°35' E 010°31'0 0.1
2015-Mar-21 21:19N 54°35' E 010°31'3 4.1
2015-Mar-21 20:33N 54°35' E 010°36'9 8.6
2015-Mar-21 19:30N 54°35' E 010°52'1212.4
2015-Mar-21 18:33N 54°36' E 011°12'1413.6
2015-Mar-21 17:33N 54°30' E 011°33'1312.6
2015-Mar-21 16:33N 54°26' E 011°54'1111.5
2015-Mar-21 15:33N 54°30' E 012°13'1212.2
2015-Mar-21 14:33N 54°40' E 012°25'1313.0
2015-Mar-21 13:33N 54°47' E 012°44'5313.1
2015-Mar-21 09:31N 55°08' E 014°09'1111.8
2015-Mar-21 08:33N 55°17' E 014°21'1411.6
2015-Mar-21 07:19N 55°28' E 014°38'1011.9
2015-Mar-21 06:28N 55°32' E 014°54'1112.0
2015-Mar-21 05:32N 55°38' E 015°12'  
Track history (hours):
 
Tides and Currents Weather Stations Pressure Air Temp Water Temp Dewpoint Dewpoint Depression Visibility Wind Speed Wind Dir Waves Ship Positions

Suederoog

Last reported at 2015-Mar-30 08:32 UTC. Time now 2015-Mar-30 09:23 UTC.
Position N 60°25' E 026°55'.

Length 161 m; draft 9.3 m.

Type: Cargo ship. MMSI: 236300000.

Date/timePositionNaut miles runAvg speedWind from/ knotsBaromVisibWave heightAir tempDewpointWater temp
2015-Mar-30 08:32N 60°25' E 026°55'0 0.0
2015-Mar-30 07:32N 60°25' E 026°55'0 0.0
2015-Mar-30 06:32N 60°25' E 026°55'0 0.0
2015-Mar-30 05:32N 60°25' E 026°55'0 0.0
2015-Mar-30 04:32N 60°25' E 026°55'0 0.0
2015-Mar-30 03:32N 60°25' E 026°55'0 0.0
2015-Mar-30 02:32N 60°25' E 026°55'0 0.0
2015-Mar-30 01:33N 60°25' E 026°55'0 0.0
2015-Mar-30 00:28N 60°25' E 026°55'0 0.0
2015-Mar-29 23:31N 60°25' E 026°55'0 0.0
2015-Mar-29 22:31N 60°25' E 026°55'0 0.0
2015-Mar-29 21:31N 60°25' E 026°55'0 0.0
2015-Mar-29 20:31N 60°25' E 026°55'0 0.0
2015-Mar-29 19:31N 60°25' E 026°55'0 0.0
2015-Mar-29 18:32N 60°25' E 026°55'0 0.0
2015-Mar-29 17:32N 60°25' E 026°55'0 0.0
2015-Mar-29 16:32N 60°25' E 026°55'0 0.0
2015-Mar-29 15:32N 60°25' E 026°55'0 0.0
2015-Mar-29 14:32N 60°25' E 026°55'0 0.0
2015-Mar-29 13:32N 60°25' E 026°55'0 0.0
2015-Mar-29 12:32N 60°25' E 026°55'0 0.0
2015-Mar-29 11:32N 60°25' E 026°55'0 0.0
2015-Mar-29 10:32N 60°25' E 026°55'0 0.0
2015-Mar-29 09:32N 60°25' E 026°55'0 0.0
2015-Mar-29 08:32N 60°25' E 026°55'0 0.0
2015-Mar-29 07:32N 60°25' E 026°55'0 0.0
2015-Mar-29 06:32N 60°25' E 026°55'0 0.0
2015-Mar-29 05:32N 60°25' E 026°55'0 0.0
2015-Mar-29 04:32N 60°25' E 026°55'0 0.0
2015-Mar-29 03:32N 60°25' E 026°55'0 0.0
2015-Mar-29 02:32N 60°25' E 026°55'0 0.0
2015-Mar-29 01:32N 60°25' E 026°55'0 0.0
2015-Mar-29 00:32N 60°25' E 026°55'0 0.0
2015-Mar-28 23:32N 60°25' E 026°55'0 0.0
2015-Mar-28 22:32N 60°25' E 026°55'0 0.0
2015-Mar-28 21:32N 60°25' E 026°55'0 0.0
2015-Mar-28 20:32N 60°25' E 026°55'0 0.0
2015-Mar-28 19:32N 60°25' E 026°55'0 0.0
2015-Mar-28 18:32N 60°25' E 026°55'0 0.0
2015-Mar-28 17:32N 60°25' E 026°55'0 0.0
2015-Mar-28 16:32N 60°25' E 026°55'0 0.0
2015-Mar-28 15:29N 60°25' E 026°55'0 0.0
2015-Mar-28 14:33N 60°25' E 026°55'0 0.0
2015-Mar-28 13:31N 60°25' E 026°55'0 0.1
2015-Mar-28 12:34N 60°25' E 026°55'3 3.0
2015-Mar-28 11:34N 60°22' E 026°54'5 4.9
2015-Mar-28 10:33N 60°23' E 026°44'6 6.2
2015-Mar-28 09:33N 60°19' E 026°35'9 9.0
2015-Mar-28 08:33N 60°12' E 026°23'1010.5
2015-Mar-28 07:33N 60°04' E 026°37'10810.5
2015-Mar-27 21:17N 59°53' E 030°12'1 0.3
2015-Mar-27 19:06N 59°52' E 030°12'0 0.0
2015-Mar-27 18:24N 59°52' E 030°12'0 0.0
2015-Mar-27 17:30N 59°52' E 030°12'0 0.0
2015-Mar-27 16:13N 59°52' E 030°12'1 1.0
2015-Mar-27 15:32N 59°53' E 030°12'0 0.0
2015-Mar-27 14:32N 59°53' E 030°12'0 0.0
2015-Mar-27 13:32N 59°53' E 030°12'0 0.0
2015-Mar-27 12:32N 59°53' E 030°12'0 0.0
2015-Mar-27 11:33N 59°53' E 030°12'0 0.0
2015-Mar-27 10:30N 59°53' E 030°12'0 0.0
2015-Mar-27 09:30N 59°53' E 030°12'0 0.0
2015-Mar-27 08:31N 59°53' E 030°12'0 0.0
2015-Mar-27 07:32N 59°53' E 030°12'0 0.0
2015-Mar-27 06:15N 59°53' E 030°12'0 0.0
2015-Mar-27 05:33N 59°53' E 030°12'0 0.0
2015-Mar-27 04:33N 59°53' E 030°12'0 0.0
2015-Mar-27 03:33N 59°53' E 030°12'0 0.1
2015-Mar-27 02:33N 59°53' E 030°12'8710.8
2015-Mar-26 18:29N 60°03' E 027°19'1010.9
2015-Mar-26 17:31N 59°58' E 027°00'1111.0
2015-Mar-26 16:34N 59°59' E 026°39'1110.7
2015-Mar-26 15:33N 59°57' E 026°19'5011.1
2015-Mar-26 11:04N 59°45' E 024°42'815.6
2015-Mar-26 10:32N 59°43' E 024°27'1615.5
2015-Mar-26 09:31N 59°39' E 023°56'1715.7
2015-Mar-26 08:26N 59°33' E 023°24'36411.8
2015-Mar-25 01:31N 55°31' E 015°00'1111.5
2015-Mar-25 00:33N 55°25' E 014°43'1411.5
2015-Mar-24 23:21N 55°15' E 014°27'911.5
2015-Mar-24 22:33N 55°08' E 014°17'1111.2
2015-Mar-24 21:33N 55°00' E 014°02'1111.5
2015-Mar-24 20:33N 54°57' E 013°43'1111.3
2015-Mar-24 19:33N 54°53' E 013°25'2311.3
2015-Mar-24 17:33N 54°47' E 012°47'1111.4
2015-Mar-24 16:32N 54°41' E 012°30'1110.9
2015-Mar-24 15:31N 54°34' E 012°16'1010.8
2015-Mar-24 14:33N 54°24' E 012°07'1211.9
2015-Mar-24 13:33N 54°25' E 011°46'1111.3
2015-Mar-24 12:33N 54°29' E 011°29'1211.6
2015-Mar-24 11:33N 54°35' E 011°11'2311.3
2015-Mar-24 09:33N 54°33' E 010°32'1010.4
2015-Mar-24 08:33N 54°28' E 010°16'8 7.6
2015-Mar-24 07:34N 54°22' E 010°08'4 3.8
2015-Mar-24 06:33N 54°22' E 010°02'5 5.3
2015-Mar-24 05:33N 54°21' E 009°53'6 5.7
2015-Mar-24 04:33N 54°20' E 009°43'5 5.1
2015-Mar-24 03:31N 54°16' E 009°37'5 4.4
2015-Mar-24 02:28N 54°12' E 009°33'6 5.5
2015-Mar-24 01:27N 54°10' E 009°24'6 6.4
2015-Mar-24 00:33N 54°05' E 009°19'7 6.9
2015-Mar-23 23:33N 53°58' E 009°16'6 6.1
2015-Mar-23 22:33N 53°54' E 009°09'1 0.9
2015-Mar-23 21:34N 53°53' E 009°08'2 2.2
2015-Mar-23 20:33N 53°53' E 009°12'1 1.5
2015-Mar-23 19:33N 53°53' E 009°14'1514.8
2015-Mar-23 18:33N 53°41' E 009°30'1312.7
2015-Mar-23 17:33N 53°33' E 009°47'5 4.7
2015-Mar-23 16:32N 53°32' E 009°55'0 0.0
2015-Mar-23 15:32N 53°32' E 009°55'0 0.0
2015-Mar-23 14:32N 53°32' E 009°55'0 0.0
2015-Mar-23 13:32N 53°32' E 009°55'0 0.0
2015-Mar-23 12:33N 53°32' E 009°55'0 0.0
2015-Mar-23 11:32N 53°32' E 009°55'0 0.0
2015-Mar-23 10:30N 53°32' E 009°55'0 0.0
2015-Mar-23 09:31N 53°32' E 009°55'0 0.0
2015-Mar-23 08:31N 53°32' E 009°55'0 0.0
2015-Mar-23 07:33N 53°32' E 009°55'0 0.0
2015-Mar-23 06:31N 53°32' E 009°55'0 0.5
2015-Mar-23 05:34N 53°32' E 009°54'2 1.6
2015-Mar-23 04:33N 53°32' E 009°57'0 0.0
2015-Mar-23 03:33N 53°32' E 009°57'0 0.0
2015-Mar-23 02:31N 53°32' E 009°57'0 0.0
2015-Mar-23 01:31N 53°32' E 009°57'0 0.0
2015-Mar-23 00:28N 53°32' E 009°57'0 0.0
2015-Mar-22 23:28N 53°32' E 009°57'0 0.0
2015-Mar-22 22:33N 53°32' E 009°57'0 0.0
2015-Mar-22 21:29N 53°32' E 009°57'0 0.0
2015-Mar-22 20:25N 53°32' E 009°57'0 0.0
2015-Mar-22 19:31N 53°32' E 009°57'0 0.0
2015-Mar-22 18:31N 53°32' E 009°57'0 0.0
2015-Mar-22 17:31N 53°32' E 009°57'0 0.0
2015-Mar-22 16:31N 53°32' E 009°57'1 0.6
2015-Mar-22 15:33N 53°32' E 009°56'1110.9
2015-Mar-22 14:33N 53°34' E 009°38'1515.2
2015-Mar-22 13:34N 53°47' E 009°23'1111.0
2015-Mar-22 12:33N 53°54' E 009°09'1 1.4
2015-Mar-22 11:33N 53°55' E 009°10'3 2.6
2015-Mar-22 10:33N 53°57' E 009°13'8 8.2
2015-Mar-22 09:33N 54°04' E 009°19'6 5.7
2015-Mar-22 08:30N 54°09' E 009°23'7 7.5
2015-Mar-22 07:33N 54°12' E 009°34'7 7.4
2015-Mar-22 06:33N 54°18' E 009°42'5 5.2
2015-Mar-22 05:33N 54°22' E 009°49'7 7.0
2015-Mar-22 04:33N 54°21' E 010°00'2 2.3
2015-Mar-22 03:33N 54°22' E 010°04'3 2.6
2015-Mar-22 02:33N 54°22' E 010°09'2 1.9
2015-Mar-22 01:33N 54°23' E 010°11'8 7.7
2015-Mar-22 00:34N 54°30' E 010°18'9 7.1
2015-Mar-21 23:19N 54°35' E 010°31'0 0.0
2015-Mar-21 22:19N 54°35' E 010°31'0 0.1
2015-Mar-21 21:19N 54°35' E 010°31'3 4.1
2015-Mar-21 20:33N 54°35' E 010°36'9 8.6
2015-Mar-21 19:30N 54°35' E 010°52'1212.4
2015-Mar-21 18:33N 54°36' E 011°12'1413.6
2015-Mar-21 17:33N 54°30' E 011°33'1312.6
2015-Mar-21 16:33N 54°26' E 011°54'1111.5
2015-Mar-21 15:33N 54°30' E 012°13'1212.2
2015-Mar-21 14:33N 54°40' E 012°25'1313.0
2015-Mar-21 13:33N 54°47' E 012°44'5313.1
2015-Mar-21 09:31N 55°08' E 014°09'1111.8
2015-Mar-21 08:33N 55°17' E 014°21'1411.6
2015-Mar-21 07:19N 55°28' E 014°38'1011.9
2015-Mar-21 06:28N 55°32' E 014°54'1112.0
2015-Mar-21 05:32N 55°38' E 015°12'  

Dump ship's entire track history